sensor_id;sensor_type;location;lat;lon;timestamp;temperature;humidity
13673;DHT22;6909;52.202;9.876;2023-03-01T00:01:27;-3.80;1.00
13673;DHT22;6909;52.202;9.876;2023-03-01T00:03:54;-3.90;1.00
13673;DHT22;6909;52.202;9.876;2023-03-01T00:06:22;-3.80;1.00
13673;DHT22;6909;52.202;9.876;2023-03-01T00:08:49;-3.80;1.00
13673;DHT22;6909;52.202;9.876;2023-03-01T00:11:19;-3.80;1.00
13673;DHT22;6909;52.202;9.876;2023-03-01T00:13:48;-3.90;99.90
13673;DHT22;6909;52.202;9.876;2023-03-01T00:16:18;-3.90;99.90
13673;DHT22;6909;52.202;9.876;2023-03-01T00:18:45;-3.90;99.90
13673;DHT22;6909;52.202;9.876;2023-03-01T00:21:12;-3.90;99.90
13673;DHT22;6909;52.202;9.876;2023-03-01T00:23:39;-3.90;99.90
13673;DHT22;6909;52.202;9.876;2023-03-01T00:26:07;-4.00;1.00
13673;DHT22;6909;52.202;9.876;2023-03-01T00:28:36;-3.80;99.90
13673;DHT22;6909;52.202;9.876;2023-03-01T00:31:03;-3.70;1.00
13673;DHT22;6909;52.202;9.876;2023-03-01T00:33:30;-3.80;50.10
13673;DHT22;6909;52.202;9.876;2023-03-01T00:35:58;-3.80;1.00
13673;DHT22;6909;52.202;9.876;2023-03-01T00:38:24;-3.90;1.00
13673;DHT22;6909;52.202;9.876;2023-03-01T00:40:51;-3.90;1.00
13673;DHT22;6909;52.202;9.876;2023-03-01T00:43:17;-4.00;1.00
13673;DHT22;6909;52.202;9.876;2023-03-01T00:45:45;-4.00;99.90
13673;DHT22;6909;52.202;9.876;2023-03-01T00:48:12;-4.00;99.90
13673;DHT22;6909;52.202;9.876;2023-03-01T00:50:39;-3.90;1.00
13673;DHT22;6909;52.202;9.876;2023-03-01T00:53:05;-3.90;1.00
13673;DHT22;6909;52.202;9.876;2023-03-01T00:55:32;-3.90;99.90
13673;DHT22;6909;52.202;9.876;2023-03-01T00:57:59;-4.00;6.80
13673;DHT22;6909;52.202;9.876;2023-03-01T01:00:26;-4.10;1.00
13673;DHT22;6909;52.202;9.876;2023-03-01T01:02:54;-4.10;1.00
13673;DHT22;6909;52.202;9.876;2023-03-01T01:05:21;-4.10;26.80
13673;DHT22;6909;52.202;9.876;2023-03-01T01:07:48;-4.10;99.90
13673;DHT22;6909;52.202;9.876;2023-03-01T01:10:14;-4.00;1.00
13673;DHT22;6909;52.202;9.876;2023-03-01T01:12:42;-3.90;1.00
13673;DHT22;6909;52.202;9.876;2023-03-01T01:15:10;-3.90;99.90
13673;DHT22;6909;52.202;9.876;2023-03-01T01:17:38;-3.90;99.90
13673;DHT22;6909;52.202;9.876;2023-03-01T01:20:07;-3.80;99.90
13673;DHT22;6909;52.202;9.876;2023-03-01T01:22:34;-3.80;99.90
13673;DHT22;6909;52.202;9.876;2023-03-01T01:25:01;-3.80;99.90
13673;DHT22;6909;52.202;9.876;2023-03-01T01:27:27;-3.70;99.90
13673;DHT22;6909;52.202;9.876;2023-03-01T01:29:55;-3.70;99.90
13673;DHT22;6909;52.202;9.876;2023-03-01T01:32:22;-3.70;99.90
13673;DHT22;6909;52.202;9.876;2023-03-01T01:34:48;-3.80;99.90
13673;DHT22;6909;52.202;9.876;2023-03-01T01:37:16;-3.80;73.50
13673;DHT22;6909;52.202;9.876;2023-03-01T01:39:43;-3.80;1.00
13673;DHT22;6909;52.202;9.876;2023-03-01T01:42:13;-3.80;1.00
13673;DHT22;6909;52.202;9.876;2023-03-01T01:44:42;-3.80;1.00
13673;DHT22;6909;52.202;9.876;2023-03-01T01:47:14;-3.80;1.00
13673;DHT22;6909;52.202;9.876;2023-03-01T01:49:45;-3.90;1.00
13673;DHT22;6909;52.202;9.876;2023-03-01T01:52:16;-4.00;1.00
13673;DHT22;6909;52.202;9.876;2023-03-01T01:54:50;-4.00;1.00
13673;DHT22;6909;52.202;9.876;2023-03-01T01:57:19;-4.00;99.90
13673;DHT22;6909;52.202;9.876;2023-03-01T01:59:51;-4.00;1.00
13673;DHT22;6909;52.202;9.876;2023-03-01T02:02:19;-4.00;1.00
13673;DHT22;6909;52.202;9.876;2023-03-01T02:04:46;-4.10;99.90
13673;DHT22;6909;52.202;9.876;2023-03-01T02:07:16;-4.20;1.00
13673;DHT22;6909;52.202;9.876;2023-03-01T02:09:47;-4.40;1.00
13673;DHT22;6909;52.202;9.876;2023-03-01T02:12:14;-4.40;1.00
13673;DHT22;6909;52.202;9.876;2023-03-01T02:14:45;-4.60;99.90
13673;DHT22;6909;52.202;9.876;2023-03-01T02:17:12;-4.70;99.90
13673;DHT22;6909;52.202;9.876;2023-03-01T02:19:52;-4.70;99.90
13673;DHT22;6909;52.202;9.876;2023-03-01T02:22:24;-4.80;1.00
13673;DHT22;6909;52.202;9.876;2023-03-01T02:25:00;-4.80;1.00
13673;DHT22;6909;52.202;9.876;2023-03-01T02:27:35;-4.80;1.00
13673;DHT22;6909;52.202;9.876;2023-03-01T02:30:05;-4.70;99.90
13673;DHT22;6909;52.202;9.876;2023-03-01T02:32:33;-4.70;99.90
13673;DHT22;6909;52.202;9.876;2023-03-01T02:34:59;-4.70;1.00
13673;DHT22;6909;52.202;9.876;2023-03-01T02:37:26;-4.70;1.00
13673;DHT22;6909;52.202;9.876;2023-03-01T02:39:56;-4.60;1.00
13673;DHT22;6909;52.202;9.876;2023-03-01T02:42:28;-4.60;1.00
13673;DHT22;6909;52.202;9.876;2023-03-01T02:44:56;-4.60;1.00
13673;DHT22;6909;52.202;9.876;2023-03-01T02:47:24;-4.60;1.00
13673;DHT22;6909;52.202;9.876;2023-03-01T02:49:51;-4.70;1.00
13673;DHT22;6909;52.202;9.876;2023-03-01T02:52:27;-4.70;1.00
13673;DHT22;6909;52.202;9.876;2023-03-01T02:55:00;-4.60;1.00
13673;DHT22;6909;52.202;9.876;2023-03-01T02:57:28;-4.70;1.00
13673;DHT22;6909;52.202;9.876;2023-03-01T02:59:58;-4.80;1.00
13673;DHT22;6909;52.202;9.876;2023-03-01T03:02:29;-4.70;99.90
13673;DHT22;6909;52.202;9.876;2023-03-01T03:05:04;-4.80;46.70
13673;DHT22;6909;52.202;9.876;2023-03-01T03:07:32;-4.70;99.90
13673;DHT22;6909;52.202;9.876;2023-03-01T03:09:58;-4.70;99.90
13673;DHT22;6909;52.202;9.876;2023-03-01T03:12:25;-4.80;99.90
13673;DHT22;6909;52.202;9.876;2023-03-01T03:14:51;-4.80;99.90
13673;DHT22;6909;52.202;9.876;2023-03-01T03:17:18;-4.80;99.90
13673;DHT22;6909;52.202;9.876;2023-03-01T03:19:46;-4.90;99.90
13673;DHT22;6909;52.202;9.876;2023-03-01T03:22:13;-4.90;99.90
13673;DHT22;6909;52.202;9.876;2023-03-01T03:24:39;-4.90;99.90
13673;DHT22;6909;52.202;9.876;2023-03-01T03:27:06;-4.80;1.00
13673;DHT22;6909;52.202;9.876;2023-03-01T03:29:33;-4.90;99.90
13673;DHT22;6909;52.202;9.876;2023-03-01T03:32:00;-4.80;1.00
13673;DHT22;6909;52.202;9.876;2023-03-01T03:34:26;-4.80;1.00
13673;DHT22;6909;52.202;9.876;2023-03-01T03:36:55;-4.80;1.00
13673;DHT22;6909;52.202;9.876;2023-03-01T03:39:25;-4.90;99.90
13673;DHT22;6909;52.202;9.876;2023-03-01T03:41:51;-5.00;83.50
13673;DHT22;6909;52.202;9.876;2023-03-01T03:44:18;-5.10;1.00
13673;DHT22;6909;52.202;9.876;2023-03-01T03:46:44;-5.10;1.00
13673;DHT22;6909;52.202;9.876;2023-03-01T03:49:14;-5.10;75.70
13673;DHT22;6909;52.202;9.876;2023-03-01T03:51:41;-4.80;1.00
13673;DHT22;6909;52.202;9.876;2023-03-01T03:54:09;-4.70;1.00
13673;DHT22;6909;52.202;9.876;2023-03-01T03:56:36;-4.40;1.00
13673;DHT22;6909;52.202;9.876;2023-03-01T03:59:02;-4.20;1.00
13673;DHT22;6909;52.202;9.876;2023-03-01T04:01:31;-4.00;1.00
13673;DHT22;6909;52.202;9.876;2023-03-01T04:03:57;-3.90;43.50
13673;DHT22;6909;52.202;9.876;2023-03-01T04:06:29;-3.90;1.00
13673;DHT22;6909;52.202;9.876;2023-03-01T04:08:56;-3.90;99.90
13673;DHT22;6909;52.202;9.876;2023-03-01T04:11:24;-4.10;1.00
13673;DHT22;6909;52.202;9.876;2023-03-01T04:13:55;-4.30;99.90
13673;DHT22;6909;52.202;9.876;2023-03-01T04:16:23;-4.40;42.60
13673;DHT22;6909;52.202;9.876;2023-03-01T04:18:50;-4.50;99.90
13673;DHT22;6909;52.202;9.876;2023-03-01T04:21:19;-4.60;99.90
13673;DHT22;6909;52.202;9.876;2023-03-01T04:23:45;-4.60;1.00
13673;DHT22;6909;52.202;9.876;2023-03-01T04:26:12;-4.60;1.00
13673;DHT22;6909;52.202;9.876;2023-03-01T04:28:41;-4.70;1.00
13673;DHT22;6909;52.202;9.876;2023-03-01T04:31:11;-4.70;1.00
13673;DHT22;6909;52.202;9.876;2023-03-01T04:33:39;-4.80;12.80
13673;DHT22;6909;52.202;9.876;2023-03-01T04:36:07;-4.90;99.90
13673;DHT22;6909;52.202;9.876;2023-03-01T04:38:35;-4.90;99.90
13673;DHT22;6909;52.202;9.876;2023-03-01T04:41:03;-4.90;1.00
13673;DHT22;6909;52.202;9.876;2023-03-01T04:43:29;-4.90;1.00
13673;DHT22;6909;52.202;9.876;2023-03-01T04:46:01;-4.90;1.00
13673;DHT22;6909;52.202;9.876;2023-03-01T04:48:29;-5.00;1.00
13673;DHT22;6909;52.202;9.876;2023-03-01T04:50:56;-5.00;1.00
13673;DHT22;6909;52.202;9.876;2023-03-01T04:53:22;-5.10;1.00
13673;DHT22;6909;52.202;9.876;2023-03-01T04:55:50;-5.10;99.90
13673;DHT22;6909;52.202;9.876;2023-03-01T04:58:16;-5.10;99.90
13673;DHT22;6909;52.202;9.876;2023-03-01T05:00:43;-5.10;99.90
13673;DHT22;6909;52.202;9.876;2023-03-01T05:03:11;-5.10;1.00
13673;DHT22;6909;52.202;9.876;2023-03-01T05:05:38;-5.20;99.90
13673;DHT22;6909;52.202;9.876;2023-03-01T05:08:06;-5.20;99.90
13673;DHT22;6909;52.202;9.876;2023-03-01T05:10:35;-5.20;1.00
13673;DHT22;6909;52.202;9.876;2023-03-01T05:13:04;-5.20;1.00
13673;DHT22;6909;52.202;9.876;2023-03-01T05:15:32;-5.20;1.00
13673;DHT22;6909;52.202;9.876;2023-03-01T05:17:59;-5.30;99.90
13673;DHT22;6909;52.202;9.876;2023-03-01T05:20:28;-5.30;99.90
13673;DHT22;6909;52.202;9.876;2023-03-01T05:22:57;-5.30;99.90
13673;DHT22;6909;52.202;9.876;2023-03-01T05:25:24;-5.40;1.00
13673;DHT22;6909;52.202;9.876;2023-03-01T05:27:51;-5.50;1.00
13673;DHT22;6909;52.202;9.876;2023-03-01T05:30:17;-5.60;1.00
13673;DHT22;6909;52.202;9.876;2023-03-01T05:32:46;-5.60;1.00
13673;DHT22;6909;52.202;9.876;2023-03-01T05:35:14;-5.70;1.00
13673;DHT22;6909;52.202;9.876;2023-03-01T05:37:44;-5.70;99.90
13673;DHT22;6909;52.202;9.876;2023-03-01T05:40:16;-5.70;1.00
13673;DHT22;6909;52.202;9.876;2023-03-01T05:42:44;-5.50;1.00
13673;DHT22;6909;52.202;9.876;2023-03-01T05:45:11;-5.60;1.00
13673;DHT22;6909;52.202;9.876;2023-03-01T05:47:39;-5.60;1.00
13673;DHT22;6909;52.202;9.876;2023-03-01T05:50:10;-5.60;87.30
13673;DHT22;6909;52.202;9.876;2023-03-01T05:52:37;-5.60;1.00
13673;DHT22;6909;52.202;9.876;2023-03-01T05:55:06;-5.60;36.20
13673;DHT22;6909;52.202;9.876;2023-03-01T05:57:33;-5.50;99.90
13673;DHT22;6909;52.202;9.876;2023-03-01T06:00:00;-5.30;1.00
13673;DHT22;6909;52.202;9.876;2023-03-01T06:02:26;-5.30;1.00
13673;DHT22;6909;52.202;9.876;2023-03-01T06:04:54;-5.10;99.90
13673;DHT22;6909;52.202;9.876;2023-03-01T06:07:21;-5.10;1.00
13673;DHT22;6909;52.202;9.876;2023-03-01T06:09:47;-5.10;1.00
13673;DHT22;6909;52.202;9.876;2023-03-01T06:12:15;-5.20;1.00
13673;DHT22;6909;52.202;9.876;2023-03-01T06:14:42;-5.10;1.00
13673;DHT22;6909;52.202;9.876;2023-03-01T06:17:09;-4.90;1.00
13673;DHT22;6909;52.202;9.876;2023-03-01T06:19:35;-4.90;1.00
13673;DHT22;6909;52.202;9.876;2023-03-01T06:22:02;-4.60;1.00
13673;DHT22;6909;52.202;9.876;2023-03-01T06:24:29;-4.10;99.90
13673;DHT22;6909;52.202;9.876;2023-03-01T06:26:55;-3.30;1.00
13673;DHT22;6909;52.202;9.876;2023-03-01T06:29:23;-2.40;99.90
13673;DHT22;6909;52.202;9.876;2023-03-01T06:31:50;-1.40;1.00
13673;DHT22;6909;52.202;9.876;2023-03-01T06:34:16;-0.70;1.00
13673;DHT22;6909;52.202;9.876;2023-03-01T06:36:43;-0.20;1.00
13673;DHT22;6909;52.202;9.876;2023-03-01T06:39:09;0.50;1.00
13673;DHT22;6909;52.202;9.876;2023-03-01T06:41:36;1.90;99.90
13673;DHT22;6909;52.202;9.876;2023-03-01T06:44:03;3.10;99.90
13673;DHT22;6909;52.202;9.876;2023-03-01T06:46:31;4.00;1.00
13673;DHT22;6909;52.202;9.876;2023-03-01T06:48:58;3.60;1.00
13673;DHT22;6909;52.202;9.876;2023-03-01T06:51:25;4.90;99.90
13673;DHT22;6909;52.202;9.876;2023-03-01T06:53:52;4.50;1.00
13673;DHT22;6909;52.202;9.876;2023-03-01T06:56:19;5.40;99.90
13673;DHT22;6909;52.202;9.876;2023-03-01T06:58:45;6.20;99.90
13673;DHT22;6909;52.202;9.876;2023-03-01T07:01:12;6.50;99.90
13673;DHT22;6909;52.202;9.876;2023-03-01T07:03:40;5.80;99.90
13673;DHT22;6909;52.202;9.876;2023-03-01T07:06:09;6.20;99.90
13673;DHT22;6909;52.202;9.876;2023-03-01T07:08:36;8.10;99.90
13673;DHT22;6909;52.202;9.876;2023-03-01T07:11:02;8.60;99.90
13673;DHT22;6909;52.202;9.876;2023-03-01T07:13:29;9.10;99.90
13673;DHT22;6909;52.202;9.876;2023-03-01T07:15:56;7.90;99.90
13673;DHT22;6909;52.202;9.876;2023-03-01T07:18:23;7.00;99.90
13673;DHT22;6909;52.202;9.876;2023-03-01T07:20:51;6.90;99.90
13673;DHT22;6909;52.202;9.876;2023-03-01T07:23:17;7.40;99.90
13673;DHT22;6909;52.202;9.876;2023-03-01T07:25:44;7.60;99.90
13673;DHT22;6909;52.202;9.876;2023-03-01T07:28:10;8.50;99.90
13673;DHT22;6909;52.202;9.876;2023-03-01T07:30:37;8.90;99.90
13673;DHT22;6909;52.202;9.876;2023-03-01T07:33:05;10.00;99.90
13673;DHT22;6909;52.202;9.876;2023-03-01T07:35:33;10.00;99.90
13673;DHT22;6909;52.202;9.876;2023-03-01T07:38:01;10.50;99.90
13673;DHT22;6909;52.202;9.876;2023-03-01T07:40:27;10.90;99.90
13673;DHT22;6909;52.202;9.876;2023-03-01T07:42:55;10.90;99.90
13673;DHT22;6909;52.202;9.876;2023-03-01T07:45:22;10.90;99.90
13673;DHT22;6909;52.202;9.876;2023-03-01T07:47:50;11.30;99.90
13673;DHT22;6909;52.202;9.876;2023-03-01T07:50:17;10.40;99.90
13673;DHT22;6909;52.202;9.876;2023-03-01T07:52:45;10.70;99.90
13673;DHT22;6909;52.202;9.876;2023-03-01T07:55:13;10.00;99.90
13673;DHT22;6909;52.202;9.876;2023-03-01T07:57:40;10.60;99.90
13673;DHT22;6909;52.202;9.876;2023-03-01T08:00:11;10.50;99.90
13673;DHT22;6909;52.202;9.876;2023-03-01T08:02:37;10.20;99.90
13673;DHT22;6909;52.202;9.876;2023-03-01T08:05:06;10.90;99.90
13673;DHT22;6909;52.202;9.876;2023-03-01T08:07:33;10.90;99.90
13673;DHT22;6909;52.202;9.876;2023-03-01T08:09:59;11.50;99.90
13673;DHT22;6909;52.202;9.876;2023-03-01T08:12:27;11.00;99.90
13673;DHT22;6909;52.202;9.876;2023-03-01T08:14:54;11.00;99.90
13673;DHT22;6909;52.202;9.876;2023-03-01T08:17:20;10.10;99.90
13673;DHT22;6909;52.202;9.876;2023-03-01T08:19:47;11.00;99.90
13673;DHT22;6909;52.202;9.876;2023-03-01T08:22:14;10.30;99.90
13673;DHT22;6909;52.202;9.876;2023-03-01T08:24:40;9.90;99.90
13673;DHT22;6909;52.202;9.876;2023-03-01T08:27:07;9.20;99.90
13673;DHT22;6909;52.202;9.876;2023-03-01T08:29:35;8.80;99.90
13673;DHT22;6909;52.202;9.876;2023-03-01T08:32:02;8.40;99.90
13673;DHT22;6909;52.202;9.876;2023-03-01T08:34:28;7.10;1.00
13673;DHT22;6909;52.202;9.876;2023-03-01T08:36:56;7.40;1.00
13673;DHT22;6909;52.202;9.876;2023-03-01T08:39:23;8.00;1.00
13673;DHT22;6909;52.202;9.876;2023-03-01T08:41:50;7.60;1.00
13673;DHT22;6909;52.202;9.876;2023-03-01T08:44:17;6.40;99.90
13673;DHT22;6909;52.202;9.876;2023-03-01T08:46:45;6.30;99.90
13673;DHT22;6909;52.202;9.876;2023-03-01T08:49:13;6.40;1.00
13673;DHT22;6909;52.202;9.876;2023-03-01T08:51:42;6.60;1.00
13673;DHT22;6909;52.202;9.876;2023-03-01T08:54:11;6.90;1.00
13673;DHT22;6909;52.202;9.876;2023-03-01T08:56:38;6.90;1.00
13673;DHT22;6909;52.202;9.876;2023-03-01T08:59:05;6.80;1.00
13673;DHT22;6909;52.202;9.876;2023-03-01T09:01:32;7.20;1.00
13673;DHT22;6909;52.202;9.876;2023-03-01T09:04:00;6.50;99.90
13673;DHT22;6909;52.202;9.876;2023-03-01T09:06:26;5.30;99.90
13673;DHT22;6909;52.202;9.876;2023-03-01T09:08:53;4.70;99.90
13673;DHT22;6909;52.202;9.876;2023-03-01T09:11:21;4.40;99.90
13673;DHT22;6909;52.202;9.876;2023-03-01T09:13:48;4.60;99.90
13673;DHT22;6909;52.202;9.876;2023-03-01T09:16:17;4.50;99.90
13673;DHT22;6909;52.202;9.876;2023-03-01T09:18:45;4.00;99.90
13673;DHT22;6909;52.202;9.876;2023-03-01T09:21:16;3.70;99.90
13673;DHT22;6909;52.202;9.876;2023-03-01T09:23:44;3.50;99.90
13673;DHT22;6909;52.202;9.876;2023-03-01T09:26:13;3.40;99.90
13673;DHT22;6909;52.202;9.876;2023-03-01T09:28:42;3.10;99.90
13673;DHT22;6909;52.202;9.876;2023-03-01T09:31:10;2.90;99.90
13673;DHT22;6909;52.202;9.876;2023-03-01T09:33:38;3.00;99.90
13673;DHT22;6909;52.202;9.876;2023-03-01T09:36:07;3.40;99.90
13673;DHT22;6909;52.202;9.876;2023-03-01T09:38:36;3.70;99.90
13673;DHT22;6909;52.202;9.876;2023-03-01T09:41:08;3.60;99.90
13673;DHT22;6909;52.202;9.876;2023-03-01T09:43:41;4.00;99.90
13673;DHT22;6909;52.202;9.876;2023-03-01T09:46:12;3.60;99.90
13673;DHT22;6909;52.202;9.876;2023-03-01T09:48:43;3.50;99.90
13673;DHT22;6909;52.202;9.876;2023-03-01T09:51:15;3.40;99.90
13673;DHT22;6909;52.202;9.876;2023-03-01T09:53:44;3.70;99.90
13673;DHT22;6909;52.202;9.876;2023-03-01T09:56:16;4.10;99.90
13673;DHT22;6909;52.202;9.876;2023-03-01T09:58:50;4.30;1.00
13673;DHT22;6909;52.202;9.876;2023-03-01T10:01:29;4.30;1.00
13673;DHT22;6909;52.202;9.876;2023-03-01T10:04:23;4.60;1.00
13673;DHT22;6909;52.202;9.876;2023-03-01T10:07:05;4.80;1.00
13673;DHT22;6909;52.202;9.876;2023-03-01T10:09:37;4.80;1.00
13673;DHT22;6909;52.202;9.876;2023-03-01T10:12:08;4.40;99.90
13673;DHT22;6909;52.202;9.876;2023-03-01T10:14:39;4.80;1.00
13673;DHT22;6909;52.202;9.876;2023-03-01T10:17:15;4.60;99.90
13673;DHT22;6909;52.202;9.876;2023-03-01T10:19:45;4.70;99.90
13673;DHT22;6909;52.202;9.876;2023-03-01T10:22:16;4.50;99.90
13673;DHT22;6909;52.202;9.876;2023-03-01T10:24:48;4.50;99.90
13673;DHT22;6909;52.202;9.876;2023-03-01T10:27:20;3.90;99.90
13673;DHT22;6909;52.202;9.876;2023-03-01T10:29:54;4.00;99.90
13673;DHT22;6909;52.202;9.876;2023-03-01T10:32:24;4.20;99.90
13673;DHT22;6909;52.202;9.876;2023-03-01T10:34:51;3.80;99.90
13673;DHT22;6909;52.202;9.876;2023-03-01T10:37:19;3.60;99.90
13673;DHT22;6909;52.202;9.876;2023-03-01T10:40:00;3.70;99.90
13673;DHT22;6909;52.202;9.876;2023-03-01T10:42:31;3.50;99.90
13673;DHT22;6909;52.202;9.876;2023-03-01T10:45:15;3.60;99.90
13673;DHT22;6909;52.202;9.876;2023-03-01T10:47:42;3.30;99.90
13673;DHT22;6909;52.202;9.876;2023-03-01T10:50:19;3.20;99.90
13673;DHT22;6909;52.202;9.876;2023-03-01T10:52:57;3.40;99.90
13673;DHT22;6909;52.202;9.876;2023-03-01T10:55:28;3.40;99.90
13673;DHT22;6909;52.202;9.876;2023-03-01T10:58:11;3.40;99.90
13673;DHT22;6909;52.202;9.876;2023-03-01T11:00:47;3.50;99.90
13673;DHT22;6909;52.202;9.876;2023-03-01T11:03:17;3.50;99.90
13673;DHT22;6909;52.202;9.876;2023-03-01T11:05:56;3.80;99.90
13673;DHT22;6909;52.202;9.876;2023-03-01T11:08:41;4.30;99.90
13673;DHT22;6909;52.202;9.876;2023-03-01T11:11:22;4.60;99.90
13673;DHT22;6909;52.202;9.876;2023-03-01T11:13:54;4.40;99.90
13673;DHT22;6909;52.202;9.876;2023-03-01T11:16:30;4.30;99.90
13673;DHT22;6909;52.202;9.876;2023-03-01T11:18:59;4.10;99.90
13673;DHT22;6909;52.202;9.876;2023-03-01T11:21:29;4.40;99.90
13673;DHT22;6909;52.202;9.876;2023-03-01T11:23:58;4.60;99.90
13673;DHT22;6909;52.202;9.876;2023-03-01T11:26:28;4.80;99.90
13673;DHT22;6909;52.202;9.876;2023-03-01T11:29:02;4.80;99.90
13673;DHT22;6909;52.202;9.876;2023-03-01T11:31:31;4.10;99.90
13673;DHT22;6909;52.202;9.876;2023-03-01T11:34:03;3.80;99.90
13673;DHT22;6909;52.202;9.876;2023-03-01T11:36:35;3.60;99.90
13673;DHT22;6909;52.202;9.876;2023-03-01T11:39:11;3.70;99.90
13673;DHT22;6909;52.202;9.876;2023-03-01T11:41:43;3.80;99.90
13673;DHT22;6909;52.202;9.876;2023-03-01T11:44:16;3.90;99.90
13673;DHT22;6909;52.202;9.876;2023-03-01T11:47:10;4.00;99.90
13673;DHT22;6909;52.202;9.876;2023-03-01T11:49:53;3.80;99.90
13673;DHT22;6909;52.202;9.876;2023-03-01T11:52:35;3.70;99.90
13673;DHT22;6909;52.202;9.876;2023-03-01T11:55:33;3.70;99.90
13673;DHT22;6909;52.202;9.876;2023-03-01T11:58:34;3.80;99.90
13673;DHT22;6909;52.202;9.876;2023-03-01T12:01:16;4.00;99.90
13673;DHT22;6909;52.202;9.876;2023-03-01T12:04:01;4.10;99.90
13673;DHT22;6909;52.202;9.876;2023-03-01T12:09:43;4.40;99.90
13673;DHT22;6909;52.202;9.876;2023-03-01T12:12:27;4.30;99.90
13673;DHT22;6909;52.202;9.876;2023-03-01T12:15:20;4.30;99.90
13673;DHT22;6909;52.202;9.876;2023-03-01T12:18:10;4.20;99.90
13673;DHT22;6909;52.202;9.876;2023-03-01T12:20:48;4.30;99.90
13673;DHT22;6909;52.202;9.876;2023-03-01T12:23:37;4.40;99.90
13673;DHT22;6909;52.202;9.876;2023-03-01T12:26:10;4.40;99.90
13673;DHT22;6909;52.202;9.876;2023-03-01T12:29:02;4.40;99.90
13673;DHT22;6909;52.202;9.876;2023-03-01T12:32:03;4.40;99.90
13673;DHT22;6909;52.202;9.876;2023-03-01T12:34:42;4.50;99.90
13673;DHT22;6909;52.202;9.876;2023-03-01T12:37:24;4.60;99.90
13673;DHT22;6909;52.202;9.876;2023-03-01T12:40:09;4.70;99.90
13673;DHT22;6909;52.202;9.876;2023-03-01T12:42:46;4.60;99.90
13673;DHT22;6909;52.202;9.876;2023-03-01T12:45:30;4.70;99.90
13673;DHT22;6909;52.202;9.876;2023-03-01T12:48:13;4.70;99.90
13673;DHT22;6909;52.202;9.876;2023-03-01T12:50:47;5.00;99.90
13673;DHT22;6909;52.202;9.876;2023-03-01T12:53:22;5.00;99.90
13673;DHT22;6909;52.202;9.876;2023-03-01T12:55:50;4.80;99.90
13673;DHT22;6909;52.202;9.876;2023-03-01T12:58:25;4.90;99.90
13673;DHT22;6909;52.202;9.876;2023-03-01T13:01:04;5.10;99.90
13673;DHT22;6909;52.202;9.876;2023-03-01T13:03:42;5.20;99.90
13673;DHT22;6909;52.202;9.876;2023-03-01T13:06:18;5.20;99.90
13673;DHT22;6909;52.202;9.876;2023-03-01T13:08:51;5.20;99.90
13673;DHT22;6909;52.202;9.876;2023-03-01T13:11:23;5.20;99.90
13673;DHT22;6909;52.202;9.876;2023-03-01T13:13:49;5.30;99.90
13673;DHT22;6909;52.202;9.876;2023-03-01T13:16:22;5.40;99.90
13673;DHT22;6909;52.202;9.876;2023-03-01T13:19:13;5.20;99.90
13673;DHT22;6909;52.202;9.876;2023-03-01T13:21:40;5.10;99.90
13673;DHT22;6909;52.202;9.876;2023-03-01T13:24:23;5.00;99.90
13673;DHT22;6909;52.202;9.876;2023-03-01T13:27:11;5.10;99.90
13673;DHT22;6909;52.202;9.876;2023-03-01T13:29:44;5.30;99.90
13673;DHT22;6909;52.202;9.876;2023-03-01T13:32:19;5.30;99.90
13673;DHT22;6909;52.202;9.876;2023-03-01T13:34:55;5.30;99.90
13673;DHT22;6909;52.202;9.876;2023-03-01T13:37:31;5.50;99.90
13673;DHT22;6909;52.202;9.876;2023-03-01T13:40:07;5.30;99.90
13673;DHT22;6909;52.202;9.876;2023-03-01T13:42:54;5.40;99.90
13673;DHT22;6909;52.202;9.876;2023-03-01T13:45:25;5.50;99.90
13673;DHT22;6909;52.202;9.876;2023-03-01T13:48:01;5.40;99.90
13673;DHT22;6909;52.202;9.876;2023-03-01T13:50:30;5.30;99.90
13673;DHT22;6909;52.202;9.876;2023-03-01T13:53:01;5.30;99.90
13673;DHT22;6909;52.202;9.876;2023-03-01T13:55:37;5.60;99.90
13673;DHT22;6909;52.202;9.876;2023-03-01T13:58:16;5.70;99.90
13673;DHT22;6909;52.202;9.876;2023-03-01T14:00:45;5.60;99.90
13673;DHT22;6909;52.202;9.876;2023-03-01T14:03:14;5.50;99.90
13673;DHT22;6909;52.202;9.876;2023-03-01T14:05:42;5.40;99.90
13673;DHT22;6909;52.202;9.876;2023-03-01T14:08:21;5.40;99.90
13673;DHT22;6909;52.202;9.876;2023-03-01T14:10:58;5.60;99.90
13673;DHT22;6909;52.202;9.876;2023-03-01T14:13:39;5.60;99.90
13673;DHT22;6909;52.202;9.876;2023-03-01T14:16:19;5.60;99.90
13673;DHT22;6909;52.202;9.876;2023-03-01T14:18:55;5.50;99.90
13673;DHT22;6909;52.202;9.876;2023-03-01T14:21:26;5.60;99.90
13673;DHT22;6909;52.202;9.876;2023-03-01T14:23:53;5.70;99.90
13673;DHT22;6909;52.202;9.876;2023-03-01T14:26:21;5.70;99.90
13673;DHT22;6909;52.202;9.876;2023-03-01T14:28:50;5.60;99.90
13673;DHT22;6909;52.202;9.876;2023-03-01T14:31:32;5.60;99.90
13673;DHT22;6909;52.202;9.876;2023-03-01T14:34:01;5.60;99.90
13673;DHT22;6909;52.202;9.876;2023-03-01T14:36:30;5.70;99.90
13673;DHT22;6909;52.202;9.876;2023-03-01T14:38:57;5.70;99.90
13673;DHT22;6909;52.202;9.876;2023-03-01T14:41:31;5.80;99.90
13673;DHT22;6909;52.202;9.876;2023-03-01T14:44:02;5.70;99.90
13673;DHT22;6909;52.202;9.876;2023-03-01T14:46:32;5.70;99.90
13673;DHT22;6909;52.202;9.876;2023-03-01T14:49:02;5.70;99.90
13673;DHT22;6909;52.202;9.876;2023-03-01T14:51:30;5.70;99.90
13673;DHT22;6909;52.202;9.876;2023-03-01T14:53:57;5.80;99.90
13673;DHT22;6909;52.202;9.876;2023-03-01T14:56:23;5.70;99.90
13673;DHT22;6909;52.202;9.876;2023-03-01T14:58:58;5.70;99.90
13673;DHT22;6909;52.202;9.876;2023-03-01T15:01:26;5.80;99.90
13673;DHT22;6909;52.202;9.876;2023-03-01T15:03:54;5.70;99.90
13673;DHT22;6909;52.202;9.876;2023-03-01T15:06:23;5.70;99.90
13673;DHT22;6909;52.202;9.876;2023-03-01T15:08:52;5.70;99.90
13673;DHT22;6909;52.202;9.876;2023-03-01T15:11:21;5.70;99.90
13673;DHT22;6909;52.202;9.876;2023-03-01T15:13:50;5.70;99.90
13673;DHT22;6909;52.202;9.876;2023-03-01T15:16:18;5.80;99.90
13673;DHT22;6909;52.202;9.876;2023-03-01T15:18:48;5.70;99.90
13673;DHT22;6909;52.202;9.876;2023-03-01T15:21:18;5.70;99.90
13673;DHT22;6909;52.202;9.876;2023-03-01T15:23:50;5.70;96.60
13673;DHT22;6909;52.202;9.876;2023-03-01T15:26:23;5.60;97.30
13673;DHT22;6909;52.202;9.876;2023-03-01T15:28:51;5.70;97.80
13673;DHT22;6909;52.202;9.876;2023-03-01T15:31:20;5.70;98.30
13673;DHT22;6909;52.202;9.876;2023-03-01T15:33:49;5.70;99.20
13673;DHT22;6909;52.202;9.876;2023-03-01T15:36:36;5.70;96.90
13673;DHT22;6909;52.202;9.876;2023-03-01T15:39:05;5.60;90.20
13673;DHT22;6909;52.202;9.876;2023-03-01T15:41:50;5.60;91.20
13673;DHT22;6909;52.202;9.876;2023-03-01T15:44:24;5.60;80.70
13673;DHT22;6909;52.202;9.876;2023-03-01T15:46:51;5.60;76.40
13673;DHT22;6909;52.202;9.876;2023-03-01T15:49:28;5.50;75.20
13673;DHT22;6909;52.202;9.876;2023-03-01T15:51:57;5.60;71.90
13673;DHT22;6909;52.202;9.876;2023-03-01T15:54:25;5.50;70.60
13673;DHT22;6909;52.202;9.876;2023-03-01T15:56:53;5.50;76.00
13673;DHT22;6909;52.202;9.876;2023-03-01T15:59:20;5.40;65.20
13673;DHT22;6909;52.202;9.876;2023-03-01T16:01:48;5.50;63.50
13673;DHT22;6909;52.202;9.876;2023-03-01T16:04:16;5.40;61.60
13673;DHT22;6909;52.202;9.876;2023-03-01T16:06:50;5.50;62.30
13673;DHT22;6909;52.202;9.876;2023-03-01T16:09:20;5.50;63.80
13673;DHT22;6909;52.202;9.876;2023-03-01T16:11:47;5.40;59.50
13673;DHT22;6909;52.202;9.876;2023-03-01T16:14:14;5.30;53.70
13673;DHT22;6909;52.202;9.876;2023-03-01T16:16:42;5.30;48.50
13673;DHT22;6909;52.202;9.876;2023-03-01T16:19:09;5.30;69.80
13673;DHT22;6909;52.202;9.876;2023-03-01T16:21:36;5.20;41.60
13673;DHT22;6909;52.202;9.876;2023-03-01T16:24:05;5.20;39.50